ENNM

Details ICAO ENNM (OSY)
Name Namsos
Region Norway
Timezone Unknown (UTC+0.0)
Plans Departing 4
Arriving 4
Stats Elevation 7 ft / 2 m (AMSL)
Location 64.472282° 11.578579°
Runways 1
Magnetic Variation 3.897° E
Sunrise 2017-12-12 09:04:16 UTC / 2017-12-12 09:04:16 Local
Sunset 2017-12-12 13:13:24 UTC / 2017-12-12 13:13:24 Local
Advertisement - Login to hide

Runways

ID Width Length Bearing (true) Bearing (mag) Surface Threshold Offset Overrun Length
07 98 ft / 30 m 2,759 ft / 841 m 73.79° 69.89° Asphalt 0 ft / 0 m 0 ft / 0 m
25 98 ft / 30 m 2,759 ft / 841 m 253.81° 249.91° Asphalt 0 ft / 0 m 0 ft / 0 m

Map

Weather


0- 5 10 15 20 25 30 35+ Temperature / ° C

Clouds and Precipitation
Forecast for 2017-12-12 18:00 UTC. Updated an hour ago

Ground ~20,000 ft ~40,000 ft Winds

METAR

ENNM 121350Z 06013KT 9999 BKN040 M08/M10 Q0994

TAF

Not found
Warning: Do not use this data for real-world aviation or navigation. No guarantee of current accuracy is given.